Terminal Aerodrome Forecast
Issued by NWS Jackson, MS

Home | Current Version | Previous Version | Text Only | Print | Product List | Glossary On
Versions: 1 2 3 4 5 6 7 8 9 10 11 12 13 14 15 16 17 18
000
FTUS44 KJAN 012300
TAFGLH
TAF
KGLH 012339Z 0200/0224 11003KT P6SM BKN060 OVC080
     FM020600 00000KT 4SM BR SCT020 OVC040
     FM021400 01005KT P6SM BKN050=

USA.gov is the U.S. government's official web portal to all federal, state and local government web resources and services.